Time;durP1;ratioP1;P1;durP2;ratioP2;P2;SDS_P1;SDS_P2;PMS_P1;PMS_P2;Temp;Humidity;BMP_temperature;BMP_pressure;BME280_temperature;BME280_humidity;BME280_pressure;Samples;Min_cycle;Max_cycle;Signal;HPM_P1;HPM_P2
2022/12/06 00:02:13;;;;;;;1.00;1.00;;;6.60;99.90;;;;;;4928191;28;20211;-62
2022/12/06 00:04:40;;;;;;;0.90;0.90;;;6.60;99.90;;;;;;4926950;29;20254;-63
2022/12/06 00:07:07;;;;;;;1.00;1.00;;;6.60;99.90;;;;;;4929869;28;20228;-62
2022/12/06 00:09:33;;;;;;;0.90;0.90;;;6.60;99.90;;;;;;4929238;29;20295;-61
2022/12/06 00:12:02;;;;;;;1.00;1.00;;;6.50;99.90;;;;;;4947807;28;20269;-62
2022/12/06 00:14:28;;;;;;;1.00;1.00;;;6.50;99.90;;;;;;4957008;28;20306;-63
2022/12/06 00:16:55;;;;;;;1.00;1.00;;;6.50;99.90;;;;;;4887825;28;1104680;-62
2022/12/06 00:19:23;;;;;;;0.90;0.90;;;6.60;99.90;;;;;;4914642;28;20214;-62
2022/12/06 00:21:50;;;;;;;0.73;0.73;;;6.60;99.90;;;;;;4946911;28;20292;-62
2022/12/06 00:24:19;;;;;;;0.90;0.90;;;6.60;99.90;;;;;;4935804;28;20242;-61
2022/12/06 00:26:47;;;;;;;1.00;1.00;;;6.60;99.90;;;;;;4930182;29;20311;-62
2022/12/06 00:29:17;;;;;;;0.90;0.90;;;6.70;99.90;;;;;;4933699;28;20212;-62
2022/12/06 00:31:44;;;;;;;1.07;1.07;;;6.70;99.90;;;;;;4942198;28;20215;-62
2022/12/06 00:34:11;;;;;;;0.93;0.93;;;6.70;99.90;;;;;;4938852;28;20338;-62
2022/12/06 00:36:40;;;;;;;0.80;0.80;;;6.70;99.90;;;;;;4933948;29;20315;-62
2022/12/06 00:39:09;;;;;;;0.80;0.80;;;6.70;99.90;;;;;;4925678;29;20205;-62
2022/12/06 00:41:36;;;;;;;0.90;0.90;;;6.70;99.90;;;;;;4933901;29;20208;-62
2022/12/06 00:44:03;;;;;;;0.93;0.93;;;6.70;99.90;;;;;;4930321;29;20243;-62
2022/12/06 00:46:32;;;;;;;0.90;0.90;;;6.70;99.90;;;;;;4930695;29;20223;-62
2022/12/06 00:49:01;;;;;;;1.00;1.00;;;6.70;99.90;;;;;;4933372;29;20677;-62
2022/12/06 00:51:29;;;;;;;0.80;0.80;;;6.70;99.90;;;;;;4931122;29;20287;-63
2022/12/06 00:53:57;;;;;;;0.80;0.80;;;6.80;99.90;;;;;;4928773;29;20312;-61
2022/12/06 00:56:25;;;;;;;1.00;1.00;;;6.80;99.90;;;;;;4926221;28;20712;-61
2022/12/06 00:58:51;;;;;;;0.70;0.70;;;6.80;99.90;;;;;;4930145;29;20208;-60
2022/12/06 01:01:20;;;;;;;0.90;0.90;;;6.80;99.90;;;;;;4927354;28;20200;-63
2022/12/06 01:03:50;;;;;;;0.80;0.80;;;6.80;99.90;;;;;;4933069;29;20204;-61
2022/12/06 01:06:19;;;;;;;1.00;1.00;;;6.80;99.90;;;;;;4927857;28;20228;-61
2022/12/06 01:08:45;;;;;;;0.90;0.90;;;6.80;99.90;;;;;;4932504;29;20711;-63
2022/12/06 01:11:15;;;;;;;0.90;0.90;;;6.90;99.90;;;;;;4931461;28;20239;-63
2022/12/06 01:13:42;;;;;;;0.87;0.87;;;6.90;99.90;;;;;;4952266;28;20234;-63
2022/12/06 01:16:11;;;;;;;0.97;0.97;;;6.90;99.90;;;;;;4930894;29;20263;-63
2022/12/06 01:18:38;;;;;;;0.90;0.90;;;6.90;99.90;;;;;;4934157;28;20293;-63
2022/12/06 01:21:08;;;;;;;1.10;1.10;;;6.90;99.90;;;;;;4936551;29;20252;-61
2022/12/06 01:23:35;;;;;;;0.97;0.97;;;6.90;99.90;;;;;;4934583;28;20284;-62
2022/12/06 01:26:02;;;;;;;1.00;1.00;;;6.90;99.90;;;;;;4930431;29;20230;-63
2022/12/06 01:28:29;;;;;;;1.30;1.30;;;6.80;99.90;;;;;;4947510;28;20235;-62
2022/12/06 01:30:55;;;;;;;0.97;0.97;;;6.80;99.90;;;;;;4933755;28;20204;-62
2022/12/06 01:33:22;;;;;;;0.90;0.90;;;6.80;99.90;;;;;;4932731;29;20228;-63
2022/12/06 01:35:49;;;;;;;0.80;0.80;;;6.80;99.90;;;;;;4933464;28;20246;-63
2022/12/06 01:38:17;;;;;;;0.93;0.93;;;6.80;99.90;;;;;;4932650;29;20208;-63
2022/12/06 01:40:46;;;;;;;1.00;1.00;;;6.80;99.90;;;;;;4932839;29;20282;-63
2022/12/06 01:43:33;;;;;;;1.00;1.00;;;6.70;99.90;;;;;;4932281;29;20583;-62
2022/12/06 01:46:20;;;;;;;1.10;1.10;;;6.70;99.90;;;;;;4929469;29;20224;-62
2022/12/06 01:48:48;;;;;;;1.00;1.00;;;6.70;99.90;;;;;;4932418;29;20214;-63
2022/12/06 01:51:16;;;;;;;1.10;1.10;;;6.60;99.90;;;;;;4932450;28;20223;-62
2022/12/06 01:53:47;;;;;;;0.87;0.87;;;6.70;99.90;;;;;;4932304;29;20315;-62
2022/12/06 01:56:15;;;;;;;0.90;0.90;;;6.60;99.90;;;;;;4931062;28;20570;-62
2022/12/06 01:58:43;;;;;;;1.00;1.00;;;6.70;99.90;;;;;;4925656;29;20212;-62
2022/12/06 02:01:11;;;;;;;0.93;0.93;;;6.70;99.90;;;;;;4931020;29;20200;-63
2022/12/06 02:03:38;;;;;;;1.13;1.13;;;6.70;99.90;;;;;;4932139;29;20753;-62
2022/12/06 02:06:07;;;;;;;1.00;1.00;;;6.70;99.90;;;;;;4931779;28;20226;-63
2022/12/06 02:08:35;;;;;;;1.00;1.00;;;6.60;99.90;;;;;;4928123;29;20201;-62
2022/12/06 02:11:04;;;;;;;0.97;0.97;;;6.60;99.90;;;;;;4928210;28;20588;-62
2022/12/06 02:13:33;;;;;;;1.00;1.00;;;6.60;99.90;;;;;;4931890;28;20224;-63
2022/12/06 02:16:13;;;;;;;1.00;1.00;;;6.50;99.90;;;;;;4925135;28;20236;-61
2022/12/06 02:18:47;;;;;;;0.93;0.93;;;6.50;99.90;;;;;;4925695;28;20204;-61
2022/12/06 02:21:20;;;;;;;0.80;0.80;;;6.50;99.90;;;;;;4956264;28;20211;-62
2022/12/06 02:24:12;;;;;;;0.90;0.90;;;6.50;99.90;;;;;;4954042;28;20255;-62
2022/12/06 02:26:44;;;;;;;0.90;0.90;;;6.60;99.90;;;;;;4922159;28;20657;-62
2022/12/06 02:29:37;;;;;;;1.10;1.03;;;6.60;99.90;;;;;;4929893;28;20540;-63
2022/12/06 02:32:10;;;;;;;0.90;0.90;;;6.50;99.90;;;;;;4920777;28;20778;-62
2022/12/06 02:34:44;;;;;;;0.97;0.97;;;6.50;99.90;;;;;;4929065;29;20228;-62
2022/12/06 02:37:14;;;;;;;1.00;1.00;;;6.50;99.90;;;;;;4929716;28;20224;-63
2022/12/06 02:39:46;;;;;;;1.13;1.00;;;6.50;99.90;;;;;;4931822;29;20208;-62
2022/12/06 02:42:18;;;;;;;0.90;0.90;;;6.50;99.90;;;;;;4955472;28;20205;-62
2022/12/06 02:44:49;;;;;;;0.90;0.90;;;6.60;99.90;;;;;;4983172;28;20283;-62
2022/12/06 02:47:22;;;;;;;1.00;1.00;;;6.60;99.90;;;;;;4929581;29;20626;-61
2022/12/06 02:49:53;;;;;;;0.87;0.87;;;6.60;99.90;;;;;;4932151;28;20260;-63
2022/12/06 02:52:24;;;;;;;0.97;0.97;;;6.60;99.90;;;;;;4931662;29;20218;-62
2022/12/06 02:54:53;;;;;;;0.80;0.80;;;6.60;99.90;;;;;;4931547;29;20235;-62
2022/12/06 02:57:26;;;;;;;0.90;0.90;;;6.60;99.90;;;;;;4931137;29;20228;-61
2022/12/06 02:59:54;;;;;;;0.90;0.90;;;6.70;99.90;;;;;;4931725;28;20227;-62
2022/12/06 03:02:23;;;;;;;0.80;0.80;;;6.60;99.90;;;;;;4931380;29;20306;-63
2022/12/06 03:05:01;;;;;;;0.80;0.80;;;6.60;99.90;;;;;;4931836;28;20240;-63
2022/12/06 03:07:36;;;;;;;0.90;0.90;;;6.60;99.90;;;;;;4931771;29;20799;-61
2022/12/06 03:10:38;;;;;;;0.77;0.77;;;6.60;99.90;;;;;;4932331;29;20204;-61
2022/12/06 03:13:15;;;;;;;1.03;1.03;;;6.60;99.90;;;;;;4933080;29;20637;-61
2022/12/06 03:15:49;;;;;;;0.80;0.80;;;6.80;99.90;;;;;;4930296;29;20231;-62
2022/12/06 03:18:21;;;;;;;1.00;1.00;;;6.80;99.90;;;;;;4929997;28;20215;-62
2022/12/06 03:20:52;;;;;;;1.10;1.10;;;6.90;99.90;;;;;;4931311;29;20593;-63
2022/12/06 03:23:24;;;;;;;0.90;0.90;;;6.80;99.90;;;;;;4931016;28;20665;-62
2022/12/06 03:25:52;;;;;;;0.80;0.80;;;6.80;99.90;;;;;;4931318;29;20224;-63
2022/12/06 03:28:21;;;;;;;0.90;0.90;;;6.70;99.90;;;;;;4933227;28;20257;-61
2022/12/06 03:30:51;;;;;;;0.90;0.90;;;6.70;99.90;;;;;;4931043;29;20281;-62
2022/12/06 03:33:22;;;;;;;0.80;0.80;;;6.70;99.90;;;;;;4930897;28;20327;-62
2022/12/06 03:35:51;;;;;;;0.87;0.87;;;6.70;99.90;;;;;;4928519;29;20238;-61
2022/12/06 03:38:22;;;;;;;0.80;0.80;;;6.80;99.90;;;;;;4930825;29;20216;-63
2022/12/06 03:40:51;;;;;;;0.87;0.87;;;6.80;99.90;;;;;;4931147;28;20223;-62
2022/12/06 03:43:19;;;;;;;0.90;0.90;;;6.80;99.90;;;;;;4931328;28;20565;-63
2022/12/06 03:45:52;;;;;;;0.90;0.90;;;6.80;99.90;;;;;;4931587;28;20598;-63
2022/12/06 03:48:26;;;;;;;0.90;0.90;;;6.70;99.90;;;;;;4931253;29;20665;-61
2022/12/06 03:50:57;;;;;;;0.80;0.80;;;6.70;99.90;;;;;;4927019;28;20706;-61
2022/12/06 03:53:24;;;;;;;0.90;0.90;;;6.70;99.90;;;;;;4929305;29;20228;-62
2022/12/06 03:55:51;;;;;;;0.90;0.90;;;6.70;99.90;;;;;;4931515;29;20720;-62
2022/12/06 03:58:18;;;;;;;0.90;0.90;;;6.70;99.90;;;;;;4931160;28;20695;-63
2022/12/06 04:00:45;;;;;;;1.00;1.00;;;6.70;99.90;;;;;;4927492;29;20211;-61
2022/12/06 04:03:12;;;;;;;0.70;0.70;;;6.70;99.90;;;;;;4935881;28;20247;-62
2022/12/06 04:05:40;;;;;;;0.80;0.80;;;6.70;99.90;;;;;;4935596;29;20399;-62
2022/12/06 04:08:07;;;;;;;2.00;1.00;;;6.70;99.90;;;;;;4937233;28;20268;-62
2022/12/06 04:10:34;;;;;;;1.00;1.00;;;6.60;99.90;;;;;;4936789;29;20204;-62
2022/12/06 04:13:00;;;;;;;1.13;1.00;;;6.60;99.90;;;;;;4935746;28;20214;-62
2022/12/06 04:15:29;;;;;;;0.90;0.90;;;6.60;99.90;;;;;;4934549;28;20227;-62
2022/12/06 04:18:12;;;;;;;0.90;0.90;;;6.60;99.90;;;;;;4925931;29;20299;-62
2022/12/06 04:23:34;;;;;;;0.90;0.90;;;6.50;99.90;;;;;;4943590;29;20231;-61
2022/12/06 04:26:01;;;;;;;1.00;1.00;;;6.50;99.90;;;;;;4945855;29;20307;-62
2022/12/06 04:39:26;;;;;;;0.73;0.73;;;6.50;99.90;;;;;;4947229;29;20235;-62
2022/12/06 04:44:38;;;;;;;0.80;0.80;;;6.50;99.90;;;;;;4938169;29;20203;-62
2022/12/06 04:47:06;;;;;;;1.07;1.07;;;6.50;99.90;;;;;;4957642;28;20221;-63
2022/12/06 04:49:33;;;;;;;0.90;0.90;;;6.50;99.90;;;;;;4944434;29;20239;-62
2022/12/06 04:52:02;;;;;;;0.90;0.90;;;6.50;99.90;;;;;;4939732;28;20495;-62
2022/12/06 04:54:30;;;;;;;0.90;0.90;;;6.40;99.90;;;;;;4924460;29;20238;-62
2022/12/06 04:56:57;;;;;;;1.00;1.00;;;6.30;99.90;;;;;;4930673;28;20657;-63
2022/12/06 04:59:24;;;;;;;0.83;0.83;;;6.30;99.90;;;;;;4930672;29;20200;-62
2022/12/06 05:01:51;;;;;;;0.87;0.87;;;6.30;99.90;;;;;;4930904;28;20218;-61
2022/12/06 05:04:18;;;;;;;1.00;1.00;;;6.30;99.90;;;;;;4932817;29;20292;-62
2022/12/06 05:06:45;;;;;;;1.03;1.03;;;6.40;99.90;;;;;;4933169;29;20234;-61
2022/12/06 05:09:14;;;;;;;0.90;0.90;;;6.40;99.90;;;;;;4928128;29;20299;-62
2022/12/06 05:11:42;;;;;;;0.90;0.90;;;6.50;99.90;;;;;;4930540;29;20227;-62
2022/12/06 05:14:09;;;;;;;1.13;1.00;;;6.50;99.90;;;;;;4931203;29;20311;-61
2022/12/06 05:16:36;;;;;;;0.90;0.90;;;6.50;99.90;;;;;;4948820;28;20235;-63
2022/12/06 05:19:03;;;;;;;0.97;0.97;;;6.50;99.90;;;;;;4933472;29;20209;-62
2022/12/06 05:21:29;;;;;;;0.90;0.90;;;6.40;99.90;;;;;;4932602;29;20368;-62
2022/12/06 05:23:57;;;;;;;1.13;1.13;;;6.40;99.90;;;;;;4934069;28;20214;-61
2022/12/06 05:26:27;;;;;;;1.00;1.00;;;6.30;99.90;;;;;;4932673;29;20227;-62
2022/12/06 05:28:55;;;;;;;0.80;0.80;;;6.30;99.90;;;;;;4933153;28;20239;-61
2022/12/06 05:31:22;;;;;;;0.93;0.93;;;6.30;99.90;;;;;;4931427;29;20208;-61
2022/12/06 05:33:50;;;;;;;0.93;0.93;;;6.30;99.90;;;;;;4939550;28;20319;-61
2022/12/06 05:36:19;;;;;;;0.83;0.83;;;6.30;99.90;;;;;;4933528;28;20238;-62
2022/12/06 05:38:47;;;;;;;0.90;0.90;;;6.30;99.90;;;;;;4932778;28;20208;-63
2022/12/06 05:41:14;;;;;;;0.90;0.90;;;6.30;99.90;;;;;;4932732;28;20232;-63
2022/12/06 05:43:42;;;;;;;0.90;0.90;;;6.40;99.90;;;;;;4932503;28;20204;-62
2022/12/06 05:46:09;;;;;;;0.90;0.90;;;6.40;99.90;;;;;;4932927;28;20238;-62
2022/12/06 05:48:36;;;;;;;0.90;0.90;;;6.40;99.90;;;;;;4932603;28;20562;-62
2022/12/06 05:51:03;;;;;;;1.07;1.07;;;6.40;99.90;;;;;;4932461;28;20303;-62
2022/12/06 05:53:30;;;;;;;1.00;1.00;;;6.40;99.90;;;;;;4932446;28;20200;-61
2022/12/06 05:56:03;;;;;;;0.90;0.90;;;6.40;99.90;;;;;;4932270;28;20273;-62
2022/12/06 05:58:29;;;;;;;0.93;0.93;;;6.50;99.90;;;;;;4926591;28;20864;-62
2022/12/06 06:00:58;;;;;;;1.07;1.07;;;6.50;99.90;;;;;;4932521;28;20300;-62
2022/12/06 06:03:24;;;;;;;0.90;0.90;;;6.40;99.90;;;;;;4932978;28;20227;-61
2022/12/06 06:05:55;;;;;;;1.00;1.00;;;6.40;99.90;;;;;;4932118;28;20254;-63
2022/12/06 06:08:22;;;;;;;1.20;1.20;;;6.40;99.90;;;;;;4932556;29;20634;-62
2022/12/06 06:10:49;;;;;;;1.17;1.17;;;6.50;99.90;;;;;;4932869;28;20207;-64
2022/12/06 06:13:16;;;;;;;1.10;1.10;;;6.50;99.90;;;;;;4933238;28;20564;-63
2022/12/06 06:15:43;;;;;;;1.10;1.10;;;6.60;99.90;;;;;;4936737;29;20235;-63
2022/12/06 06:18:11;;;;;;;1.30;1.10;;;6.60;99.90;;;;;;4934727;29;20204;-63
2022/12/06 06:20:38;;;;;;;0.90;0.90;;;6.60;99.90;;;;;;4933353;28;20204;-62
2022/12/06 06:23:04;;;;;;;1.03;1.00;;;6.60;99.90;;;;;;4929940;28;20235;-63
2022/12/06 06:25:31;;;;;;;0.90;0.90;;;6.70;99.90;;;;;;4931337;29;20232;-65
2022/12/06 06:27:58;;;;;;;1.53;1.40;;;6.70;99.90;;;;;;4932064;29;20660;-64
2022/12/06 06:30:25;;;;;;;1.30;1.20;;;6.70;99.90;;;;;;4933082;28;20205;-64
2022/12/06 06:32:52;;;;;;;1.00;1.00;;;6.80;99.90;;;;;;4936780;29;20236;-64
2022/12/06 06:35:20;;;;;;;1.10;1.10;;;6.80;99.90;;;;;;4933966;28;20827;-64
2022/12/06 06:37:47;;;;;;;1.10;1.10;;;6.80;99.90;;;;;;4931916;28;20258;-61
2022/12/06 06:40:14;;;;;;;1.00;1.00;;;6.90;99.90;;;;;;4932010;28;20219;-63
2022/12/06 06:42:41;;;;;;;1.17;1.17;;;7.00;99.90;;;;;;4949305;28;20212;-63
2022/12/06 06:45:08;;;;;;;1.00;1.00;;;7.00;99.90;;;;;;4932429;28;20200;-62
2022/12/06 06:47:35;;;;;;;1.30;1.30;;;7.00;99.90;;;;;;4932607;29;20749;-63
2022/12/06 06:50:02;;;;;;;1.10;1.10;;;6.90;99.90;;;;;;4933488;28;20668;-64
2022/12/06 06:52:30;;;;;;;0.93;0.93;;;7.00;99.90;;;;;;4919974;28;20210;-63
2022/12/06 06:54:57;;;;;;;1.00;1.00;;;6.90;99.90;;;;;;4932485;29;20708;-62
2022/12/06 06:57:24;;;;;;;1.40;1.40;;;6.90;99.90;;;;;;4932208;29;20315;-64
2022/12/06 06:59:51;;;;;;;1.30;1.30;;;6.90;99.90;;;;;;4932697;28;20204;-62
2022/12/06 07:02:18;;;;;;;1.13;1.13;;;6.80;99.90;;;;;;4929500;29;20692;-64
2022/12/06 07:04:45;;;;;;;1.30;1.30;;;6.80;99.90;;;;;;4932267;28;20334;-62
2022/12/06 07:07:13;;;;;;;1.30;1.30;;;6.80;99.90;;;;;;4931901;28;20236;-62
2022/12/06 07:09:41;;;;;;;1.10;1.10;;;6.80;99.90;;;;;;4932550;29;20262;-64
2022/12/06 07:12:08;;;;;;;1.20;1.20;;;6.70;99.90;;;;;;4932136;29;20239;-62
2022/12/06 07:14:35;;;;;;;1.10;1.10;;;6.60;99.90;;;;;;4924928;28;20718;-64
2022/12/06 07:17:02;;;;;;;1.43;1.40;;;6.60;99.90;;;;;;4931213;28;20240;-64
2022/12/06 07:19:29;;;;;;;1.40;1.30;;;6.70;99.90;;;;;;4932937;28;20240;-62
2022/12/06 07:21:56;;;;;;;1.30;1.23;;;6.80;99.90;;;;;;4935430;28;20208;-62
2022/12/06 07:24:23;;;;;;;1.60;1.50;;;6.80;99.90;;;;;;4933497;28;20208;-66
2022/12/06 07:26:51;;;;;;;1.47;1.40;;;6.90;99.90;;;;;;4936904;28;20220;-61
2022/12/06 07:29:18;;;;;;;1.40;1.30;;;6.90;99.90;;;;;;4934130;28;20208;-61
2022/12/06 07:31:44;;;;;;;1.20;1.20;;;7.00;99.90;;;;;;4931487;28;20204;-64
2022/12/06 07:34:11;;;;;;;1.33;1.30;;;6.80;99.90;;;;;;4932446;29;20222;-63
2022/12/06 07:36:38;;;;;;;1.10;1.10;;;6.70;99.90;;;;;;4934250;29;20251;-62
2022/12/06 07:39:05;;;;;;;1.10;1.10;;;6.70;99.90;;;;;;4942407;28;20560;-63
2022/12/06 07:47:02;;;;;;;1.30;1.30;;;6.50;99.90;;;;;;4931442;29;20715;-63
2022/12/06 07:49:30;;;;;;;1.30;1.30;;;6.40;99.90;;;;;;4931517;29;20212;-62
2022/12/06 07:51:57;;;;;;;1.10;1.10;;;6.20;99.90;;;;;;4931250;29;20556;-64
2022/12/06 07:54:24;;;;;;;1.20;1.20;;;6.10;99.90;;;;;;4930774;29;20214;-62
2022/12/06 07:56:51;;;;;;;1.30;1.30;;;6.00;99.90;;;;;;4932392;28;20228;-63
2022/12/06 07:59:20;;;;;;;1.30;1.20;;;6.00;99.90;;;;;;4930131;29;20699;-61
2022/12/06 08:01:47;;;;;;;1.20;1.20;;;5.90;99.90;;;;;;4931705;28;20219;-62
2022/12/06 08:04:14;;;;;;;1.33;1.33;;;5.70;99.90;;;;;;4930800;29;20587;-63
2022/12/06 08:06:41;;;;;;;1.23;1.23;;;5.90;99.90;;;;;;4931071;29;20311;-62
2022/12/06 08:09:07;;;;;;;1.23;1.23;;;5.80;99.90;;;;;;4930927;29;20204;-63
2022/12/06 08:11:35;;;;;;;1.17;1.17;;;5.90;99.90;;;;;;4931529;29;20208;-61
2022/12/06 08:14:01;;;;;;;1.50;1.50;;;5.90;99.90;;;;;;4931253;29;20230;-62
2022/12/06 08:16:30;;;;;;;1.40;1.40;;;6.00;99.90;;;;;;4923091;29;20297;-63
2022/12/06 08:18:57;;;;;;;1.43;1.40;;;5.90;99.90;;;;;;4931737;28;20208;-62
2022/12/06 08:21:25;;;;;;;1.30;1.30;;;5.90;99.90;;;;;;4929307;29;20204;-63
2022/12/06 08:23:52;;;;;;;1.60;1.50;;;5.90;99.90;;;;;;4918586;28;21808;-62
2022/12/06 08:26:19;;;;;;;1.70;1.60;;;5.90;99.90;;;;;;4931514;29;20314;-63
2022/12/06 08:28:46;;;;;;;1.40;1.40;;;5.90;99.90;;;;;;4931723;28;20219;-63
2022/12/06 08:31:15;;;;;;;1.60;1.50;;;5.80;99.90;;;;;;4928114;29;20690;-61
2022/12/06 08:33:44;;;;;;;1.77;1.67;;;5.80;99.90;;;;;;4925644;28;20208;-63
2022/12/06 08:36:13;;;;;;;1.50;1.50;;;5.80;99.90;;;;;;4931289;28;20334;-63
2022/12/06 08:38:40;;;;;;;1.80;1.70;;;5.90;99.90;;;;;;4931460;29;20208;-63
2022/12/06 08:41:54;;;;;;;1.80;1.70;;;5.90;99.90;;;;;;4932034;28;20303;-64
2022/12/06 08:43:57;;;;;;;2.47;2.13;;;5.80;99.90;;;;;;4931533;28;20692;-61
2022/12/06 08:46:24;;;;;;;2.13;1.93;;;5.80;99.90;;;;;;4931109;28;20220;-62
2022/12/06 08:48:53;;;;;;;1.83;1.73;;;5.90;99.90;;;;;;4929425;29;20240;-62
2022/12/06 08:51:20;;;;;;;1.80;1.70;;;6.00;99.90;;;;;;4934755;28;20672;-63
2022/12/06 08:53:46;;;;;;;1.53;1.50;;;6.00;99.90;;;;;;4949082;28;20990;-62
2022/12/06 08:56:18;;;;;;;1.60;1.50;;;6.10;99.90;;;;;;4926444;28;20282;-62
2022/12/06 08:58:49;;;;;;;1.67;1.57;;;6.30;99.90;;;;;;4934937;28;20291;-62
2022/12/06 09:01:20;;;;;;;1.90;1.80;;;6.30;99.90;;;;;;4934496;29;20214;-63
2022/12/06 09:03:50;;;;;;;2.10;1.90;;;6.20;99.90;;;;;;4931381;28;20227;-62
2022/12/06 09:06:21;;;;;;;2.10;2.00;;;6.20;99.90;;;;;;4934001;28;20220;-63
2022/12/06 09:08:54;;;;;;;1.40;1.40;;;6.20;99.90;;;;;;4933766;28;20681;-63
2022/12/06 09:11:25;;;;;;;1.83;1.73;;;6.20;99.90;;;;;;4932159;28;20216;-64
2022/12/06 09:13:56;;;;;;;1.90;1.80;;;6.20;99.90;;;;;;4930185;28;20227;-63
2022/12/06 09:16:24;;;;;;;1.90;1.80;;;6.10;99.90;;;;;;4933239;28;20933;-64
2022/12/06 09:18:55;;;;;;;2.13;1.93;;;6.10;99.90;;;;;;4933348;29;20204;-62
2022/12/06 09:21:29;;;;;;;1.67;1.57;;;6.10;99.90;;;;;;4929105;28;20212;-63
2022/12/06 09:23:58;;;;;;;2.10;2.00;;;6.10;99.90;;;;;;4932218;28;20204;-62
2022/12/06 09:26:34;;;;;;;1.80;1.70;;;6.10;99.90;;;;;;4932904;28;20277;-63
2022/12/06 09:29:02;;;;;;;1.80;1.70;;;6.10;99.90;;;;;;4936169;28;20580;-62
2022/12/06 09:31:30;;;;;;;1.63;1.53;;;6.10;99.90;;;;;;4933763;29;20237;-63
2022/12/06 09:34:07;;;;;;;1.80;1.70;;;6.20;99.90;;;;;;4933690;28;20589;-63
2022/12/06 09:36:46;;;;;;;1.73;1.63;;;6.20;99.90;;;;;;4930815;28;20239;-64
2022/12/06 09:39:16;;;;;;;1.73;1.63;;;6.10;99.90;;;;;;4928770;28;20302;-62
2022/12/06 09:42:11;;;;;;;1.60;1.60;;;6.20;99.90;;;;;;4933568;28;20269;-64
2022/12/06 09:45:12;;;;;;;1.70;1.60;;;6.20;99.90;;;;;;4944238;29;20209;-63
2022/12/06 09:47:58;;;;;;;1.90;1.80;;;6.20;99.90;;;;;;4932281;28;20203;-62
2022/12/06 09:50:38;;;;;;;1.90;1.80;;;6.20;99.90;;;;;;4934941;29;20295;-63
2022/12/06 09:53:33;;;;;;;2.10;2.00;;;6.00;99.90;;;;;;4932880;28;20268;-62
2022/12/06 09:56:20;;;;;;;2.20;2.10;;;6.10;99.90;;;;;;4933520;28;20236;-63
2022/12/06 09:59:03;;;;;;;2.13;2.03;;;6.10;99.90;;;;;;4936111;28;20209;-64
2022/12/06 10:01:45;;;;;;;1.80;1.70;;;6.10;99.90;;;;;;4927907;28;20208;-63
2022/12/06 10:04:47;;;;;;;1.63;1.53;;;6.10;99.90;;;;;;4932659;28;20219;-62
2022/12/06 10:07:21;;;;;;;2.00;1.60;;;6.00;99.90;;;;;;4928133;28;20231;-62
2022/12/06 10:10:05;;;;;;;1.87;1.70;;;6.00;99.90;;;;;;4938784;28;20261;-63
2022/12/06 10:12:59;;;;;;;1.47;1.47;;;6.00;99.90;;;;;;4937606;28;20244;-64
2022/12/06 10:15:42;;;;;;;1.60;1.53;;;6.00;99.90;;;;;;4929760;29;20228;-63
2022/12/06 10:18:35;;;;;;;2.17;1.77;;;6.00;99.90;;;;;;4932911;28;20266;-62
2022/12/06 10:21:15;;;;;;;1.80;1.70;;;5.90;99.90;;;;;;4928495;29;20286;-64
2022/12/06 10:24:00;;;;;;;1.50;1.50;;;5.90;99.90;;;;;;4927931;29;20330;-63
2022/12/06 10:26:34;;;;;;;1.80;1.70;;;6.10;99.90;;;;;;4932737;29;20216;-63
2022/12/06 10:29:11;;;;;;;1.70;1.60;;;6.10;99.90;;;;;;4927004;28;20251;-63
2022/12/06 10:31:59;;;;;;;1.50;1.40;;;6.20;99.90;;;;;;4931471;28;20204;-62
2022/12/06 10:34:52;;;;;;;1.60;1.50;;;6.20;99.90;;;;;;4935656;29;20200;-63
2022/12/06 10:37:31;;;;;;;1.50;1.40;;;6.20;99.90;;;;;;4931437;28;20227;-62
2022/12/06 10:40:06;;;;;;;1.87;1.77;;;6.10;99.90;;;;;;4931685;28;20208;-61
2022/12/06 10:42:48;;;;;;;1.80;1.70;;;6.10;99.90;;;;;;4928839;29;20312;-62
2022/12/06 10:48:20;;;;;;;1.90;1.80;;;6.00;99.90;;;;;;4926065;29;20268;-64
2022/12/06 10:50:54;;;;;;;1.70;1.60;;;6.00;99.90;;;;;;4928944;28;20211;-63
2022/12/06 10:53:26;;;;;;;2.03;1.93;;;6.10;99.90;;;;;;4927340;28;20334;-61
2022/12/06 10:56:07;;;;;;;1.77;1.67;;;6.00;99.90;;;;;;4929223;28;20586;-61
2022/12/06 10:58:43;;;;;;;2.03;1.93;;;5.90;99.90;;;;;;4932490;28;20604;-62
2022/12/06 11:01:19;;;;;;;2.13;2.03;;;5.90;99.90;;;;;;4928309;28;20219;-64
2022/12/06 11:03:59;;;;;;;1.90;1.80;;;5.90;99.90;;;;;;4926669;28;20208;-63
2022/12/06 11:06:32;;;;;;;1.67;1.60;;;6.00;99.90;;;;;;4929261;29;20607;-62
2022/12/06 11:09:08;;;;;;;1.77;1.67;;;5.90;99.90;;;;;;4930579;28;20620;-62
2022/12/06 11:11:46;;;;;;;1.70;1.60;;;5.90;99.90;;;;;;4926232;28;20212;-62
2022/12/06 11:14:26;;;;;;;1.80;1.70;;;6.00;99.90;;;;;;4930376;28;20226;-62
2022/12/06 11:16:59;;;;;;;2.20;2.10;;;6.00;99.90;;;;;;4928163;28;20228;-62
2022/12/06 11:19:35;;;;;;;1.83;1.73;;;6.10;99.90;;;;;;4932762;28;20701;-63
2022/12/06 11:22:17;;;;;;;1.90;1.80;;;6.10;99.90;;;;;;4932810;29;20207;-62
2022/12/06 11:24:52;;;;;;;2.20;2.10;;;6.10;99.90;;;;;;4928271;28;20212;-62
2022/12/06 11:27:30;;;;;;;1.63;1.53;;;6.10;99.90;;;;;;4927382;28;20254;-63
2022/12/06 11:30:12;;;;;;;2.00;1.90;;;6.10;99.90;;;;;;4923194;29;20212;-64
2022/12/06 11:32:54;;;;;;;2.00;1.90;;;6.10;99.90;;;;;;4927852;28;20213;-63
2022/12/06 11:35:26;;;;;;;1.70;1.60;;;6.00;99.90;;;;;;4925867;28;20212;-61
2022/12/06 11:37:58;;;;;;;1.97;1.87;;;6.00;99.90;;;;;;4926276;28;20208;-63
2022/12/06 11:40:28;;;;;;;1.77;1.67;;;6.10;99.90;;;;;;4929846;29;20222;-63
2022/12/06 11:43:04;;;;;;;2.00;1.90;;;6.20;99.90;;;;;;4933241;28;20276;-62
2022/12/06 11:45:38;;;;;;;1.90;1.80;;;6.30;99.90;;;;;;4930317;28;20239;-62
2022/12/06 11:48:15;;;;;;;2.03;1.93;;;6.30;99.90;;;;;;4936409;28;20254;-62
2022/12/06 11:50:50;;;;;;;1.80;1.70;;;6.20;99.90;;;;;;4933443;28;21539;-62
2022/12/06 11:53:25;;;;;;;1.77;1.67;;;6.30;99.90;;;;;;4925865;29;20250;-63
2022/12/06 11:55:55;;;;;;;1.80;1.70;;;6.30;99.90;;;;;;4931644;29;20241;-62
2022/12/06 11:58:33;;;;;;;1.70;1.60;;;6.30;99.90;;;;;;4933362;28;20219;-61
2022/12/06 12:01:13;;;;;;;1.80;1.70;;;6.30;99.90;;;;;;4922194;29;20215;-62
2022/12/06 12:03:46;;;;;;;1.70;1.60;;;6.20;99.90;;;;;;4928263;28;20343;-62
2022/12/06 12:06:20;;;;;;;1.90;1.80;;;6.20;99.90;;;;;;4930996;28;20795;-62
2022/12/06 12:08:54;;;;;;;1.80;1.70;;;6.10;99.90;;;;;;4930734;29;20203;-62
2022/12/06 12:11:24;;;;;;;1.80;1.70;;;6.00;99.90;;;;;;4931747;28;20216;-62
2022/12/06 12:13:54;;;;;;;1.80;1.70;;;6.00;99.90;;;;;;4924934;28;20295;-65
2022/12/06 12:16:26;;;;;;;1.77;1.67;;;6.10;99.90;;;;;;4935520;28;20460;-62
2022/12/06 12:19:01;;;;;;;1.80;1.70;;;6.20;99.90;;;;;;4932814;28;21621;-62
2022/12/06 12:21:38;;;;;;;1.43;1.40;;;6.30;99.90;;;;;;4934696;28;20212;-62
2022/12/06 12:24:35;;;;;;;1.50;1.40;;;6.20;99.90;;;;;;4936862;28;20299;-63
2022/12/06 12:27:12;;;;;;;1.40;1.40;;;6.20;99.90;;;;;;4944263;29;20231;-62
2022/12/06 12:29:41;;;;;;;1.53;1.47;;;6.30;99.90;;;;;;4929666;28;20316;-62
2022/12/06 12:32:20;;;;;;;1.43;1.40;;;6.30;99.90;;;;;;4928037;29;20285;-62
2022/12/06 12:34:47;;;;;;;2.07;1.97;;;6.30;99.90;;;;;;4928698;28;20203;-65
2022/12/06 12:37:30;;;;;;;1.53;1.47;;;6.40;99.90;;;;;;4936953;28;20253;-63
2022/12/06 12:40:01;;;;;;;1.60;1.50;;;6.40;99.90;;;;;;4932509;28;20204;-63
2022/12/06 12:42:31;;;;;;;1.70;1.60;;;6.30;99.90;;;;;;4935802;28;20287;-63
2022/12/06 12:45:04;;;;;;;1.73;1.63;;;6.30;99.90;;;;;;4934674;29;20237;-63
2022/12/06 12:47:37;;;;;;;1.60;1.50;;;6.30;99.90;;;;;;4933751;29;20239;-62
2022/12/06 12:50:18;;;;;;;1.30;1.30;;;6.30;99.90;;;;;;4929273;28;20295;-64
2022/12/06 12:52:48;;;;;;;1.30;1.30;;;6.20;99.90;;;;;;4926085;28;20243;-61
2022/12/06 12:55:20;;;;;;;1.63;1.53;;;6.00;99.90;;;;;;4933146;29;20965;-62
2022/12/06 12:57:50;;;;;;;1.60;1.50;;;5.90;99.90;;;;;;4929530;29;20212;-62
2022/12/06 13:00:22;;;;;;;1.47;1.47;;;5.90;99.90;;;;;;4932438;28;20703;-62
2022/12/06 13:02:56;;;;;;;1.90;1.80;;;5.90;99.90;;;;;;4929490;28;20208;-62
2022/12/06 13:05:27;;;;;;;1.97;1.70;;;5.90;99.90;;;;;;4933536;28;20217;-62
2022/12/06 13:07:59;;;;;;;1.80;1.70;;;5.90;99.90;;;;;;4928912;28;20244;-61
2022/12/06 13:10:32;;;;;;;1.90;1.80;;;5.90;99.90;;;;;;4934574;28;20584;-61
2022/12/06 13:13:05;;;;;;;1.83;1.73;;;5.90;99.90;;;;;;4932182;28;20661;-62
2022/12/06 13:15:39;;;;;;;2.00;1.90;;;5.90;99.90;;;;;;4937510;28;20235;-62
2022/12/06 13:18:19;;;;;;;2.00;1.90;;;5.90;99.90;;;;;;4936376;28;20200;-62
2022/12/06 13:20:59;;;;;;;2.20;2.10;;;6.00;99.90;;;;;;4932991;28;20657;-61
2022/12/06 13:23:34;;;;;;;1.83;1.73;;;6.00;99.90;;;;;;4937908;29;20211;-64
2022/12/06 13:26:13;;;;;;;2.10;2.00;;;6.00;99.90;;;;;;4947703;28;20232;-62
2022/12/06 13:28:46;;;;;;;2.13;2.03;;;6.00;99.90;;;;;;4927440;28;20215;-62
2022/12/06 13:31:19;;;;;;;2.20;2.10;;;5.90;99.90;;;;;;4933914;28;20212;-63
2022/12/06 13:33:55;;;;;;;2.00;1.90;;;5.90;99.90;;;;;;4927544;28;20213;-63
2022/12/06 13:36:24;;;;;;;1.80;1.70;;;6.00;99.90;;;;;;4936889;28;20232;-63
2022/12/06 13:38:56;;;;;;;1.87;1.77;;;6.00;99.90;;;;;;4937335;29;20247;-64
2022/12/06 13:44:53;;;;;;;1.80;1.70;;;6.10;99.90;;;;;;4963544;28;20307;-64
2022/12/06 13:47:41;;;;;;;1.83;1.73;;;6.20;99.90;;;;;;4936097;29;20319;-64
2022/12/06 13:50:44;;;;;;;1.83;1.73;;;6.30;99.90;;;;;;4946312;28;20214;-63